sensor_id;sensor_type;location;lat;lon;timestamp;P1;P2;P0
49708;PMS5003;35601;55.902;13.606;2023-04-28T00:00:02;7;5;
49708;PMS5003;35601;55.902;13.606;2023-04-28T00:02:28;6;6;
49708;PMS5003;35601;55.902;13.606;2023-04-28T00:04:53;6;6;
49708;PMS5003;35601;55.902;13.606;2023-04-28T00:07:18;5;4;
49708;PMS5003;35601;55.902;13.606;2023-04-28T00:09:44;9;5;
49708;PMS5003;35601;55.902;13.606;2023-04-28T00:12:09;6;4;
49708;PMS5003;35601;55.902;13.606;2023-04-28T00:14:35;9;6;
49708;PMS5003;35601;55.902;13.606;2023-04-28T00:17:00;8;6;
49708;PMS5003;35601;55.902;13.606;2023-04-28T00:19:26;6;5;
49708;PMS5003;35601;55.902;13.606;2023-04-28T00:21:51;9;5;
49708;PMS5003;35601;55.902;13.606;2023-04-28T00:24:17;5;4;
49708;PMS5003;35601;55.902;13.606;2023-04-28T00:26:43;6;6;
49708;PMS5003;35601;55.902;13.606;2023-04-28T00:29:08;10;6;
49708;PMS5003;35601;55.902;13.606;2023-04-28T00:31:33;19;18;
49708;PMS5003;35601;55.902;13.606;2023-04-28T00:33:59;60;51;
49708;PMS5003;35601;55.902;13.606;2023-04-28T00:36:24;82;66;
49708;PMS5003;35601;55.902;13.606;2023-04-28T00:38:50;48;37;
49708;PMS5003;35601;55.902;13.606;2023-04-28T00:41:15;24;19;
49708;PMS5003;35601;55.902;13.606;2023-04-28T00:43:44;11;9;
49708;PMS5003;35601;55.902;13.606;2023-04-28T00:46:06;9;9;
49708;PMS5003;35601;55.902;13.606;2023-04-28T00:48:31;34;31;
49708;PMS5003;35601;55.902;13.606;2023-04-28T00:50:59;16;14;
49708;PMS5003;35601;55.902;13.606;2023-04-28T00:53:22;15;12;
49708;PMS5003;35601;55.902;13.606;2023-04-28T00:55:48;6;6;
49708;PMS5003;35601;55.902;13.606;2023-04-28T00:58:13;5;5;
49708;PMS5003;35601;55.902;13.606;2023-04-28T01:00:39;9;9;
49708;PMS5003;35601;55.902;13.606;2023-04-28T01:03:04;6;5;
49708;PMS5003;35601;55.902;13.606;2023-04-28T01:05:30;8;6;
49708;PMS5003;35601;55.902;13.606;2023-04-28T01:07:55;8;8;
49708;PMS5003;35601;55.902;13.606;2023-04-28T01:10:21;9;6;
49708;PMS5003;35601;55.902;13.606;2023-04-28T01:12:46;4;4;
49708;PMS5003;35601;55.902;13.606;2023-04-28T01:15:14;8;6;
49708;PMS5003;35601;55.902;13.606;2023-04-28T01:17:38;8;6;
49708;PMS5003;35601;55.902;13.606;2023-04-28T01:20:03;4;4;
49708;PMS5003;35601;55.902;13.606;2023-04-28T01:22:28;5;4;
49708;PMS5003;35601;55.902;13.606;2023-04-28T01:24:53;2;2;
49708;PMS5003;35601;55.902;13.606;2023-04-28T01:27:19;5;5;
49708;PMS5003;35601;55.902;13.606;2023-04-28T01:29:44;8;6;
49708;PMS5003;35601;55.902;13.606;2023-04-28T01:32:12;6;5;
49708;PMS5003;35601;55.902;13.606;2023-04-28T01:34:35;6;6;
49708;PMS5003;35601;55.902;13.606;2023-04-28T01:37:00;10;5;
49708;PMS5003;35601;55.902;13.606;2023-04-28T01:39:26;4;4;
49708;PMS5003;35601;55.902;13.606;2023-04-28T01:41:51;8;6;
49708;PMS5003;35601;55.902;13.606;2023-04-28T01:44:17;4;4;
49708;PMS5003;35601;55.902;13.606;2023-04-28T01:46:42;9;8;
49708;PMS5003;35601;55.902;13.606;2023-04-28T01:49:08;10;8;
49708;PMS5003;35601;55.902;13.606;2023-04-28T01:51:34;4;4;
49708;PMS5003;35601;55.902;13.606;2023-04-28T01:53:59;5;5;
49708;PMS5003;35601;55.902;13.606;2023-04-28T01:56:25;5;5;
49708;PMS5003;35601;55.902;13.606;2023-04-28T01:58:50;4;4;
49708;PMS5003;35601;55.902;13.606;2023-04-28T02:01:17;4;4;
49708;PMS5003;35601;55.902;13.606;2023-04-28T02:03:41;6;5;
49708;PMS5003;35601;55.902;13.606;2023-04-28T02:06:07;8;4;
49708;PMS5003;35601;55.902;13.606;2023-04-28T02:08:32;9;6;
49708;PMS5003;35601;55.902;13.606;2023-04-28T02:10:58;9;5;
49708;PMS5003;35601;55.902;13.606;2023-04-28T02:13:23;10;6;
49708;PMS5003;35601;55.902;13.606;2023-04-28T02:15:49;6;4;
49708;PMS5003;35601;55.902;13.606;2023-04-28T02:18:14;11;6;
49708;PMS5003;35601;55.902;13.606;2023-04-28T02:20:40;6;6;
49708;PMS5003;35601;55.902;13.606;2023-04-28T02:23:05;5;5;
49708;PMS5003;35601;55.902;13.606;2023-04-28T02:25:31;5;5;
49708;PMS5003;35601;55.902;13.606;2023-04-28T02:27:56;9;7;
49708;PMS5003;35601;55.902;13.606;2023-04-28T02:30:22;7;4;
49708;PMS5003;35601;55.902;13.606;2023-04-28T02:32:47;5;5;
49708;PMS5003;35601;55.902;13.606;2023-04-28T02:35:13;5;5;
49708;PMS5003;35601;55.902;13.606;2023-04-28T02:37:38;7;7;
49708;PMS5003;35601;55.902;13.606;2023-04-28T02:40:04;3;3;
49708;PMS5003;35601;55.902;13.606;2023-04-28T02:42:29;8;7;
49708;PMS5003;35601;55.902;13.606;2023-04-28T02:44:55;4;4;
49708;PMS5003;35601;55.902;13.606;2023-04-28T02:47:20;7;4;
49708;PMS5003;35601;55.902;13.606;2023-04-28T02:49:46;4;4;
49708;PMS5003;35601;55.902;13.606;2023-04-28T02:52:11;3;3;
49708;PMS5003;35601;55.902;13.606;2023-04-28T02:54:37;4;4;
49708;PMS5003;35601;55.902;13.606;2023-04-28T02:57:03;4;4;
49708;PMS5003;35601;55.902;13.606;2023-04-28T02:59:29;4;4;
49708;PMS5003;35601;55.902;13.606;2023-04-28T03:01:54;9;7;
49708;PMS5003;35601;55.902;13.606;2023-04-28T03:04:18;7;5;
49708;PMS5003;35601;55.902;13.606;2023-04-28T03:06:44;8;4;
49708;PMS5003;35601;55.902;13.606;2023-04-28T03:09:10;9;7;
49708;PMS5003;35601;55.902;13.606;2023-04-28T03:11:35;8;7;
49708;PMS5003;35601;55.902;13.606;2023-04-28T03:14:00;4;3;
49708;PMS5003;35601;55.902;13.606;2023-04-28T03:16:26;5;4;
49708;PMS5003;35601;55.902;13.606;2023-04-28T03:18:51;5;5;
49708;PMS5003;35601;55.902;13.606;2023-04-28T03:21:17;7;5;
49708;PMS5003;35601;55.902;13.606;2023-04-28T03:23:42;5;5;
49708;PMS5003;35601;55.902;13.606;2023-04-28T03:26:08;7;4;
49708;PMS5003;35601;55.902;13.606;2023-04-28T03:28:35;8;7;
49708;PMS5003;35601;55.902;13.606;2023-04-28T03:30:59;7;4;
49708;PMS5003;35601;55.902;13.606;2023-04-28T03:33:24;3;3;
49708;PMS5003;35601;55.902;13.606;2023-04-28T03:35:50;9;7;
49708;PMS5003;35601;55.902;13.606;2023-04-28T03:38:15;5;4;
49708;PMS5003;35601;55.902;13.606;2023-04-28T03:40:40;5;5;
49708;PMS5003;35601;55.902;13.606;2023-04-28T03:43:07;12;5;
49708;PMS5003;35601;55.902;13.606;2023-04-28T03:45:31;4;4;
49708;PMS5003;35601;55.902;13.606;2023-04-28T03:47:57;8;7;
49708;PMS5003;35601;55.902;13.606;2023-04-28T03:50:23;7;7;
49708;PMS5003;35601;55.902;13.606;2023-04-28T03:52:48;7;4;
49708;PMS5003;35601;55.902;13.606;2023-04-28T03:55:14;5;4;
49708;PMS5003;35601;55.902;13.606;2023-04-28T03:57:41;7;7;
49708;PMS5003;35601;55.902;13.606;2023-04-28T04:00:06;3;3;
49708;PMS5003;35601;55.902;13.606;2023-04-28T04:02:30;8;4;
49708;PMS5003;35601;55.902;13.606;2023-04-28T04:04:55;9;8;
49708;PMS5003;35601;55.902;13.606;2023-04-28T04:07:22;11;6;
49708;PMS5003;35601;55.902;13.606;2023-04-28T04:09:46;6;5;
49708;PMS5003;35601;55.902;13.606;2023-04-28T04:12:12;5;5;
49708;PMS5003;35601;55.902;13.606;2023-04-28T04:14:37;5;5;
49708;PMS5003;35601;55.902;13.606;2023-04-28T04:17:03;6;6;
49708;PMS5003;35601;55.902;13.606;2023-04-28T04:19:29;9;9;
49708;PMS5003;35601;55.902;13.606;2023-04-28T04:21:54;9;6;
49708;PMS5003;35601;55.902;13.606;2023-04-28T04:24:20;6;5;
49708;PMS5003;35601;55.902;13.606;2023-04-28T04:26:45;6;4;
49708;PMS5003;35601;55.902;13.606;2023-04-28T04:29:11;9;8;
49708;PMS5003;35601;55.902;13.606;2023-04-28T04:31:36;4;4;
49708;PMS5003;35601;55.902;13.606;2023-04-28T04:34:03;9;6;
49708;PMS5003;35601;55.902;13.606;2023-04-28T04:36:27;9;8;
49708;PMS5003;35601;55.902;13.606;2023-04-28T04:38:52;9;8;
49708;PMS5003;35601;55.902;13.606;2023-04-28T04:41:18;10;9;
49708;PMS5003;35601;55.902;13.606;2023-04-28T04:43:45;6;6;
49708;PMS5003;35601;55.902;13.606;2023-04-28T04:46:10;13;10;
49708;PMS5003;35601;55.902;13.606;2023-04-28T04:48:34;7;7;
49708;PMS5003;35601;55.902;13.606;2023-04-28T04:51:00;10;7;
49708;PMS5003;35601;55.902;13.606;2023-04-28T04:53:25;9;8;
49708;PMS5003;35601;55.902;13.606;2023-04-28T04:55:50;6;6;
49708;PMS5003;35601;55.902;13.606;2023-04-28T04:58:15;5;5;
49708;PMS5003;35601;55.902;13.606;2023-04-28T05:00:41;7;5;
49708;PMS5003;35601;55.902;13.606;2023-04-28T05:03:06;8;4;
49708;PMS5003;35601;55.902;13.606;2023-04-28T05:05:33;4;4;
49708;PMS5003;35601;55.902;13.606;2023-04-28T05:07:59;5;5;
49708;PMS5003;35601;55.902;13.606;2023-04-28T05:10:23;7;5;
49708;PMS5003;35601;55.902;13.606;2023-04-28T05:12:48;8;5;
49708;PMS5003;35601;55.902;13.606;2023-04-28T05:15:13;7;7;
49708;PMS5003;35601;55.902;13.606;2023-04-28T05:17:38;4;4;
49708;PMS5003;35601;55.902;13.606;2023-04-28T05:20:05;8;7;
49708;PMS5003;35601;55.902;13.606;2023-04-28T05:22:29;8;7;
49708;PMS5003;35601;55.902;13.606;2023-04-28T05:24:54;7;7;
49708;PMS5003;35601;55.902;13.606;2023-04-28T05:27:19;10;8;
49708;PMS5003;35601;55.902;13.606;2023-04-28T05:29:45;5;4;
49708;PMS5003;35601;55.902;13.606;2023-04-28T05:32:11;8;6;
49708;PMS5003;35601;55.902;13.606;2023-04-28T05:34:36;7;6;
49708;PMS5003;35601;55.902;13.606;2023-04-28T05:37:02;10;8;
49708;PMS5003;35601;55.902;13.606;2023-04-28T05:39:26;6;5;
49708;PMS5003;35601;55.902;13.606;2023-04-28T05:41:52;3;3;
49708;PMS5003;35601;55.902;13.606;2023-04-28T05:44:16;7;6;
49708;PMS5003;35601;55.902;13.606;2023-04-28T05:46:42;8;7;
49708;PMS5003;35601;55.902;13.606;2023-04-28T05:49:07;5;5;
49708;PMS5003;35601;55.902;13.606;2023-04-28T05:51:32;6;5;
49708;PMS5003;35601;55.902;13.606;2023-04-28T05:53:57;10;9;
49708;PMS5003;35601;55.902;13.606;2023-04-28T05:56:24;7;5;
49708;PMS5003;35601;55.902;13.606;2023-04-28T05:58:48;7;7;
49708;PMS5003;35601;55.902;13.606;2023-04-28T06:01:15;8;6;
49708;PMS5003;35601;55.902;13.606;2023-04-28T06:03:40;12;9;
49708;PMS5003;35601;55.902;13.606;2023-04-28T06:06:06;10;6;
49708;PMS5003;35601;55.902;13.606;2023-04-28T06:08:31;5;5;
49708;PMS5003;35601;55.902;13.606;2023-04-28T06:10:57;8;7;
49708;PMS5003;35601;55.902;13.606;2023-04-28T06:13:22;5;4;
49708;PMS5003;35601;55.902;13.606;2023-04-28T06:15:47;7;5;
49708;PMS5003;35601;55.902;13.606;2023-04-28T06:18:12;6;6;
49708;PMS5003;35601;55.902;13.606;2023-04-28T06:20:38;8;5;
49708;PMS5003;35601;55.902;13.606;2023-04-28T06:23:04;8;8;
49708;PMS5003;35601;55.902;13.606;2023-04-28T06:25:29;4;4;
49708;PMS5003;35601;55.902;13.606;2023-04-28T06:27:54;8;7;
49708;PMS5003;35601;55.902;13.606;2023-04-28T06:30:21;7;5;
49708;PMS5003;35601;55.902;13.606;2023-04-28T06:32:44;5;5;
49708;PMS5003;35601;55.902;13.606;2023-04-28T06:35:11;6;5;
49708;PMS5003;35601;55.902;13.606;2023-04-28T06:37:35;4;4;
49708;PMS5003;35601;55.902;13.606;2023-04-28T06:40:01;5;4;
49708;PMS5003;35601;55.902;13.606;2023-04-28T06:42:26;3;3;
49708;PMS5003;35601;55.902;13.606;2023-04-28T06:44:51;6;5;
49708;PMS5003;35601;55.902;13.606;2023-04-28T06:47:16;6;4;
49708;PMS5003;35601;55.902;13.606;2023-04-28T06:49:41;3;3;
49708;PMS5003;35601;55.902;13.606;2023-04-28T06:52:07;2;2;
49708;PMS5003;35601;55.902;13.606;2023-04-28T06:54:32;2;2;
49708;PMS5003;35601;55.902;13.606;2023-04-28T06:56:58;6;6;
49708;PMS5003;35601;55.902;13.606;2023-04-28T06:59:22;2;2;
49708;PMS5003;35601;55.902;13.606;2023-04-28T07:01:48;7;5;
49708;PMS5003;35601;55.902;13.606;2023-04-28T07:04:13;5;4;
49708;PMS5003;35601;55.902;13.606;2023-04-28T07:06:38;6;5;
49708;PMS5003;35601;55.902;13.606;2023-04-28T07:09:03;6;3;
49708;PMS5003;35601;55.902;13.606;2023-04-28T07:11:30;5;4;
49708;PMS5003;35601;55.902;13.606;2023-04-28T07:13:54;2;2;
49708;PMS5003;35601;55.902;13.606;2023-04-28T07:16:20;5;5;
49708;PMS5003;35601;55.902;13.606;2023-04-28T07:18:45;2;2;
49708;PMS5003;35601;55.902;13.606;2023-04-28T07:21:10;8;7;
49708;PMS5003;35601;55.902;13.606;2023-04-28T07:23:37;2;1;
49708;PMS5003;35601;55.902;13.606;2023-04-28T07:26:02;5;3;
49708;PMS5003;35601;55.902;13.606;2023-04-28T07:28:27;3;2;
49708;PMS5003;35601;55.902;13.606;2023-04-28T07:30:51;4;4;
49708;PMS5003;35601;55.902;13.606;2023-04-28T07:33:16;4;2;
49708;PMS5003;35601;55.902;13.606;2023-04-28T07:35:42;7;7;
49708;PMS5003;35601;55.902;13.606;2023-04-28T07:38:07;6;5;
49708;PMS5003;35601;55.902;13.606;2023-04-28T07:40:32;5;5;
49708;PMS5003;35601;55.902;13.606;2023-04-28T07:42:58;5;3;
49708;PMS5003;35601;55.902;13.606;2023-04-28T07:45:23;3;3;
49708;PMS5003;35601;55.902;13.606;2023-04-28T07:47:49;3;2;
49708;PMS5003;35601;55.902;13.606;2023-04-28T07:50:13;3;3;
49708;PMS5003;35601;55.902;13.606;2023-04-28T07:52:39;4;3;
49708;PMS5003;35601;55.902;13.606;2023-04-28T07:55:04;3;2;
49708;PMS5003;35601;55.902;13.606;2023-04-28T07:57:29;5;3;
49708;PMS5003;35601;55.902;13.606;2023-04-28T07:59:54;2;2;
49708;PMS5003;35601;55.902;13.606;2023-04-28T08:02:21;4;4;
49708;PMS5003;35601;55.902;13.606;2023-04-28T08:04:46;5;3;
49708;PMS5003;35601;55.902;13.606;2023-04-28T08:07:10;2;2;
49708;PMS5003;35601;55.902;13.606;2023-04-28T08:09:36;4;3;
49708;PMS5003;35601;55.902;13.606;2023-04-28T08:12:00;6;3;
49708;PMS5003;35601;55.902;13.606;2023-04-28T08:14:25;2;2;
49708;PMS5003;35601;55.902;13.606;2023-04-28T08:16:50;4;4;
49708;PMS5003;35601;55.902;13.606;2023-04-28T08:19:16;4;3;
49708;PMS5003;35601;55.902;13.606;2023-04-28T08:21:41;5;5;
49708;PMS5003;35601;55.902;13.606;2023-04-28T08:24:07;4;4;
49708;PMS5003;35601;55.902;13.606;2023-04-28T08:26:33;1;1;
49708;PMS5003;35601;55.902;13.606;2023-04-28T08:28:58;3;2;
49708;PMS5003;35601;55.902;13.606;2023-04-28T08:31:22;5;5;
49708;PMS5003;35601;55.902;13.606;2023-04-28T08:33:48;3;3;
49708;PMS5003;35601;55.902;13.606;2023-04-28T08:36:13;3;3;
49708;PMS5003;35601;55.902;13.606;2023-04-28T08:38:38;3;2;
49708;PMS5003;35601;55.902;13.606;2023-04-28T08:41:04;2;2;
49708;PMS5003;35601;55.902;13.606;2023-04-28T08:43:31;5;3;
49708;PMS5003;35601;55.902;13.606;2023-04-28T08:45:54;2;2;
49708;PMS5003;35601;55.902;13.606;2023-04-28T08:48:20;3;1;
49708;PMS5003;35601;55.902;13.606;2023-04-28T08:50:47;3;3;
49708;PMS5003;35601;55.902;13.606;2023-04-28T08:53:10;5;5;
49708;PMS5003;35601;55.902;13.606;2023-04-28T08:55:35;1;1;
49708;PMS5003;35601;55.902;13.606;2023-04-28T08:58:01;2;2;
49708;PMS5003;35601;55.902;13.606;2023-04-28T09:00:26;5;5;
49708;PMS5003;35601;55.902;13.606;2023-04-28T09:02:51;4;4;
49708;PMS5003;35601;55.902;13.606;2023-04-28T09:05:16;4;3;
49708;PMS5003;35601;55.902;13.606;2023-04-28T09:07:45;3;3;
49708;PMS5003;35601;55.902;13.606;2023-04-28T09:10:14;2;2;
49708;PMS5003;35601;55.902;13.606;2023-04-28T09:12:35;2;2;
49708;PMS5003;35601;55.902;13.606;2023-04-28T09:14:59;2;2;
49708;PMS5003;35601;55.902;13.606;2023-04-28T09:17:24;1;1;
49708;PMS5003;35601;55.902;13.606;2023-04-28T09:19:47;2;2;
49708;PMS5003;35601;55.902;13.606;2023-04-28T09:22:12;2;2;
49708;PMS5003;35601;55.902;13.606;2023-04-28T09:24:38;1;1;
49708;PMS5003;35601;55.902;13.606;2023-04-28T09:27:03;4;3;
49708;PMS5003;35601;55.902;13.606;2023-04-28T09:29:29;2;2;
49708;PMS5003;35601;55.902;13.606;2023-04-28T09:31:53;4;3;
49708;PMS5003;35601;55.902;13.606;2023-04-28T09:34:18;2;2;
49708;PMS5003;35601;55.902;13.606;2023-04-28T09:36:43;3;3;
49708;PMS5003;35601;55.902;13.606;2023-04-28T09:39:09;3;2;
49708;PMS5003;35601;55.902;13.606;2023-04-28T09:41:34;3;3;
49708;PMS5003;35601;55.902;13.606;2023-04-28T09:46:27;2;2;
49708;PMS5003;35601;55.902;13.606;2023-04-28T09:48:49;2;2;
49708;PMS5003;35601;55.902;13.606;2023-04-28T09:51:19;4;1;
49708;PMS5003;35601;55.902;13.606;2023-04-28T09:53:40;3;2;
49708;PMS5003;35601;55.902;13.606;2023-04-28T09:56:05;1;1;
49708;PMS5003;35601;55.902;13.606;2023-04-28T09:58:30;3;2;
49708;PMS5003;35601;55.902;13.606;2023-04-28T10:00:56;4;2;
49708;PMS5003;35601;55.902;13.606;2023-04-28T10:03:21;4;1;
49708;PMS5003;35601;55.902;13.606;2023-04-28T10:05:46;4;2;
49708;PMS5003;35601;55.902;13.606;2023-04-28T10:08:11;3;2;
49708;PMS5003;35601;55.902;13.606;2023-04-28T10:10:38;2;2;
49708;PMS5003;35601;55.902;13.606;2023-04-28T10:13:01;1;1;
49708;PMS5003;35601;55.902;13.606;2023-04-28T10:15:27;4;4;
49708;PMS5003;35601;55.902;13.606;2023-04-28T10:17:52;3;2;
49708;PMS5003;35601;55.902;13.606;2023-04-28T10:20:17;3;1;
49708;PMS5003;35601;55.902;13.606;2023-04-28T10:22:49;2;2;
49708;PMS5003;35601;55.902;13.606;2023-04-28T10:25:15;2;2;
49708;PMS5003;35601;55.902;13.606;2023-04-28T10:27:34;2;2;
49708;PMS5003;35601;55.902;13.606;2023-04-28T10:32:23;4;1;
49708;PMS5003;35601;55.902;13.606;2023-04-28T10:34:49;1;1;
49708;PMS5003;35601;55.902;13.606;2023-04-28T10:37:14;3;2;
49708;PMS5003;35601;55.902;13.606;2023-04-28T10:39:39;1;1;
49708;PMS5003;35601;55.902;13.606;2023-04-28T10:42:04;2;2;
49708;PMS5003;35601;55.902;13.606;2023-04-28T10:47:00;3;1;
49708;PMS5003;35601;55.902;13.606;2023-04-28T10:49:20;3;3;
49708;PMS5003;35601;55.902;13.606;2023-04-28T10:51:45;3;1;
49708;PMS5003;35601;55.902;13.606;2023-04-28T10:54:14;2;1;
49708;PMS5003;35601;55.902;13.606;2023-04-28T10:56:35;3;1;
49708;PMS5003;35601;55.902;13.606;2023-04-28T10:59:01;1;1;
49708;PMS5003;35601;55.902;13.606;2023-04-28T11:01:26;2;2;
49708;PMS5003;35601;55.902;13.606;2023-04-28T11:03:51;2;2;
49708;PMS5003;35601;55.902;13.606;2023-04-28T11:06:17;1;1;
49708;PMS5003;35601;55.902;13.606;2023-04-28T11:08:41;2;1;
49708;PMS5003;35601;55.902;13.606;2023-04-28T11:11:12;1;0;
49708;PMS5003;35601;55.902;13.606;2023-04-28T11:13:32;1;1;
49708;PMS5003;35601;55.902;13.606;2023-04-28T11:16:02;0;0;
49708;PMS5003;35601;55.902;13.606;2023-04-28T11:18:22;1;1;
49708;PMS5003;35601;55.902;13.606;2023-04-28T11:20:47;1;1;
49708;PMS5003;35601;55.902;13.606;2023-04-28T11:23:12;2;2;
49708;PMS5003;35601;55.902;13.606;2023-04-28T11:28:03;4;2;
49708;PMS5003;35601;55.902;13.606;2023-04-28T11:30:28;3;3;
49708;PMS5003;35601;55.902;13.606;2023-04-28T11:32:53;3;2;
49708;PMS5003;35601;55.902;13.606;2023-04-28T11:35:18;2;2;
49708;PMS5003;35601;55.902;13.606;2023-04-28T11:37:43;3;1;
49708;PMS5003;35601;55.902;13.606;2023-04-28T11:40:09;2;1;
49708;PMS5003;35601;55.902;13.606;2023-04-28T11:42:33;5;2;
49708;PMS5003;35601;55.902;13.606;2023-04-28T11:44:59;2;1;
49708;PMS5003;35601;55.902;13.606;2023-04-28T11:47:27;3;3;
49708;PMS5003;35601;55.902;13.606;2023-04-28T11:49:49;4;4;
49708;PMS5003;35601;55.902;13.606;2023-04-28T11:52:14;3;2;
49708;PMS5003;35601;55.902;13.606;2023-04-28T11:54:39;6;5;
49708;PMS5003;35601;55.902;13.606;2023-04-28T11:57:05;2;2;
49708;PMS5003;35601;55.902;13.606;2023-04-28T11:59:30;2;2;
49708;PMS5003;35601;55.902;13.606;2023-04-28T12:01:56;2;2;
49708;PMS5003;35601;55.902;13.606;2023-04-28T12:04:26;3;2;
49708;PMS5003;35601;55.902;13.606;2023-04-28T12:06:45;2;2;
49708;PMS5003;35601;55.902;13.606;2023-04-28T12:09:16;3;3;
49708;PMS5003;35601;55.902;13.606;2023-04-28T12:11:36;3;3;
49708;PMS5003;35601;55.902;13.606;2023-04-28T12:14:02;5;4;
49708;PMS5003;35601;55.902;13.606;2023-04-28T12:21:19;3;3;
49708;PMS5003;35601;55.902;13.606;2023-04-28T12:23:41;5;5;
49708;PMS5003;35601;55.902;13.606;2023-04-28T12:26:07;6;4;
49708;PMS5003;35601;55.902;13.606;2023-04-28T12:28:36;6;5;
49708;PMS5003;35601;55.902;13.606;2023-04-28T12:31:02;3;3;
49708;PMS5003;35601;55.902;13.606;2023-04-28T12:33:23;6;3;
49708;PMS5003;35601;55.902;13.606;2023-04-28T12:35:48;4;4;
49708;PMS5003;35601;55.902;13.606;2023-04-28T12:38:13;7;4;
49708;PMS5003;35601;55.902;13.606;2023-04-28T12:40:38;3;3;
49708;PMS5003;35601;55.902;13.606;2023-04-28T12:43:04;3;3;
49708;PMS5003;35601;55.902;13.606;2023-04-28T12:45:29;4;4;
49708;PMS5003;35601;55.902;13.606;2023-04-28T12:47:54;4;4;
49708;PMS5003;35601;55.902;13.606;2023-04-28T12:50:19;3;3;
49708;PMS5003;35601;55.902;13.606;2023-04-28T12:52:44;3;3;
49708;PMS5003;35601;55.902;13.606;2023-04-28T12:55:09;4;4;
49708;PMS5003;35601;55.902;13.606;2023-04-28T12:57:36;5;4;
49708;PMS5003;35601;55.902;13.606;2023-04-28T13:00:00;4;4;
49708;PMS5003;35601;55.902;13.606;2023-04-28T13:02:25;3;3;
49708;PMS5003;35601;55.902;13.606;2023-04-28T13:04:52;4;3;
49708;PMS5003;35601;55.902;13.606;2023-04-28T13:07:15;6;4;
49708;PMS5003;35601;55.902;13.606;2023-04-28T13:09:41;4;4;
49708;PMS5003;35601;55.902;13.606;2023-04-28T13:12:06;5;3;
49708;PMS5003;35601;55.902;13.606;2023-04-28T13:14:31;1;1;
49708;PMS5003;35601;55.902;13.606;2023-04-28T13:16:56;2;2;
49708;PMS5003;35601;55.902;13.606;2023-04-28T13:19:22;3;3;
49708;PMS5003;35601;55.902;13.606;2023-04-28T13:21:47;4;4;
49708;PMS5003;35601;55.902;13.606;2023-04-28T13:24:12;2;2;
49708;PMS5003;35601;55.902;13.606;2023-04-28T13:26:37;3;3;
49708;PMS5003;35601;55.902;13.606;2023-04-28T13:29:02;3;3;
49708;PMS5003;35601;55.902;13.606;2023-04-28T13:31:29;3;3;
49708;PMS5003;35601;55.902;13.606;2023-04-28T13:33:52;3;2;
49708;PMS5003;35601;55.902;13.606;2023-04-28T13:36:18;2;2;
49708;PMS5003;35601;55.902;13.606;2023-04-28T13:38:43;5;3;
49708;PMS5003;35601;55.902;13.606;2023-04-28T13:41:08;3;3;
49708;PMS5003;35601;55.902;13.606;2023-04-28T13:43:35;4;2;
49708;PMS5003;35601;55.902;13.606;2023-04-28T13:46:00;9;5;
49708;PMS5003;35601;55.902;13.606;2023-04-28T13:48:24;4;3;
49708;PMS5003;35601;55.902;13.606;2023-04-28T13:50:50;8;7;
49708;PMS5003;35601;55.902;13.606;2023-04-28T13:53:15;1;1;
49708;PMS5003;35601;55.902;13.606;2023-04-28T13:55:40;4;4;
49708;PMS5003;35601;55.902;13.606;2023-04-28T13:58:05;5;5;
49708;PMS5003;35601;55.902;13.606;2023-04-28T14:00:31;30;27;
49708;PMS5003;35601;55.902;13.606;2023-04-28T14:02:56;8;7;
49708;PMS5003;35601;55.902;13.606;2023-04-28T14:05:22;11;10;
49708;PMS5003;35601;55.902;13.606;2023-04-28T14:07:47;4;3;
49708;PMS5003;35601;55.902;13.606;2023-04-28T14:10:14;6;3;
49708;PMS5003;35601;55.902;13.606;2023-04-28T14:12:39;5;5;
49708;PMS5003;35601;55.902;13.606;2023-04-28T14:15:03;5;5;
49708;PMS5003;35601;55.902;13.606;2023-04-28T14:17:28;5;3;
49708;PMS5003;35601;55.902;13.606;2023-04-28T14:19:53;5;4;
49708;PMS5003;35601;55.902;13.606;2023-04-28T14:22:20;11;10;
49708;PMS5003;35601;55.902;13.606;2023-04-28T14:24:44;4;4;
49708;PMS5003;35601;55.902;13.606;2023-04-28T14:27:11;7;7;
49708;PMS5003;35601;55.902;13.606;2023-04-28T14:29:37;8;8;
49708;PMS5003;35601;55.902;13.606;2023-04-28T14:32:00;6;4;
49708;PMS5003;35601;55.902;13.606;2023-04-28T14:34:26;5;4;
49708;PMS5003;35601;55.902;13.606;2023-04-28T14:36:52;5;4;
49708;PMS5003;35601;55.902;13.606;2023-04-28T14:39:17;6;6;
49708;PMS5003;35601;55.902;13.606;2023-04-28T14:41:41;4;4;
49708;PMS5003;35601;55.902;13.606;2023-04-28T14:44:06;7;4;
49708;PMS5003;35601;55.902;13.606;2023-04-28T14:46:32;6;4;
49708;PMS5003;35601;55.902;13.606;2023-04-28T14:48:57;7;5;
49708;PMS5003;35601;55.902;13.606;2023-04-28T14:51:22;4;4;
49708;PMS5003;35601;55.902;13.606;2023-04-28T14:53:47;5;5;
49708;PMS5003;35601;55.902;13.606;2023-04-28T14:56:12;4;3;
49708;PMS5003;35601;55.902;13.606;2023-04-28T14:58:39;4;4;
49708;PMS5003;35601;55.902;13.606;2023-04-28T15:01:03;5;5;
49708;PMS5003;35601;55.902;13.606;2023-04-28T15:03:28;4;3;
49708;PMS5003;35601;55.902;13.606;2023-04-28T15:05:55;3;2;
49708;PMS5003;35601;55.902;13.606;2023-04-28T15:08:19;2;2;
49708;PMS5003;35601;55.902;13.606;2023-04-28T15:10:45;3;3;
49708;PMS5003;35601;55.902;13.606;2023-04-28T15:13:10;5;3;
49708;PMS5003;35601;55.902;13.606;2023-04-28T15:15:35;4;4;
49708;PMS5003;35601;55.902;13.606;2023-04-28T15:18:00;3;3;
49708;PMS5003;35601;55.902;13.606;2023-04-28T15:20:25;5;3;
49708;PMS5003;35601;55.902;13.606;2023-04-28T15:22:50;8;5;
49708;PMS5003;35601;55.902;13.606;2023-04-28T15:25:16;5;4;
49708;PMS5003;35601;55.902;13.606;2023-04-28T15:27:41;4;3;
49708;PMS5003;35601;55.902;13.606;2023-04-28T15:30:07;5;3;
49708;PMS5003;35601;55.902;13.606;2023-04-28T15:32:31;2;2;
49708;PMS5003;35601;55.902;13.606;2023-04-28T15:34:57;4;4;
49708;PMS5003;35601;55.902;13.606;2023-04-28T15:39:48;5;4;
49708;PMS5003;35601;55.902;13.606;2023-04-28T15:42:13;3;3;
49708;PMS5003;35601;55.902;13.606;2023-04-28T15:44:38;4;2;
49708;PMS5003;35601;55.902;13.606;2023-04-28T15:47:03;2;2;
49708;PMS5003;35601;55.902;13.606;2023-04-28T15:49:28;4;3;
49708;PMS5003;35601;55.902;13.606;2023-04-28T15:51:55;5;5;
49708;PMS5003;35601;55.902;13.606;2023-04-28T15:54:20;5;3;
49708;PMS5003;35601;55.902;13.606;2023-04-28T15:56:45;3;3;
49708;PMS5003;35601;55.902;13.606;2023-04-28T15:59:10;2;2;
49708;PMS5003;35601;55.902;13.606;2023-04-28T16:01:34;3;3;
49708;PMS5003;35601;55.902;13.606;2023-04-28T16:04:00;3;2;
49708;PMS5003;35601;55.902;13.606;2023-04-28T16:06:25;3;3;
49708;PMS5003;35601;55.902;13.606;2023-04-28T16:08:50;1;1;
49708;PMS5003;35601;55.902;13.606;2023-04-28T16:11:15;4;3;
49708;PMS5003;35601;55.902;13.606;2023-04-28T16:13:41;3;3;
49708;PMS5003;35601;55.902;13.606;2023-04-28T16:16:06;4;2;
49708;PMS5003;35601;55.902;13.606;2023-04-28T16:18:32;2;2;
49708;PMS5003;35601;55.902;13.606;2023-04-28T16:20:58;4;4;
49708;PMS5003;35601;55.902;13.606;2023-04-28T16:23:22;3;3;
49708;PMS5003;35601;55.902;13.606;2023-04-28T16:25:49;6;6;
49708;PMS5003;35601;55.902;13.606;2023-04-28T16:28:14;3;3;
49708;PMS5003;35601;55.902;13.606;2023-04-28T16:30:39;4;4;
49708;PMS5003;35601;55.902;13.606;2023-04-28T16:33:04;6;5;
49708;PMS5003;35601;55.902;13.606;2023-04-28T16:35:29;4;4;